Time;durP1;ratioP1;P1;durP2;ratioP2;P2;SDS_P1;SDS_P2;PMS_P1;PMS_P2;Temp;Humidity;BMP_temperature;BMP_pressure;BME280_temperature;BME280_humidity;BME280_pressure;Samples;Min_cycle;Max_cycle;Signal;HPM_P1;HPM_P2
2022/12/09 00:01:57;;;;;;;5.63;4.70;;;1.20;99.90;;;;;;5032444;28;20225;-82
2022/12/09 00:04:22;;;;;;;6.30;4.73;;;1.10;99.90;;;;;;5030971;28;20207;-83
2022/12/09 00:06:48;;;;;;;6.97;4.97;;;1.20;99.90;;;;;;5032476;28;20198;-82
2022/12/09 00:09:14;;;;;;;5.90;4.80;;;1.20;99.90;;;;;;5032278;28;20699;-83
2022/12/09 00:11:40;;;;;;;6.97;5.10;;;1.20;99.90;;;;;;5031399;28;20207;-83
2022/12/09 00:14:06;;;;;;;8.00;5.10;;;1.20;99.90;;;;;;5032279;28;20175;-82
2022/12/09 00:16:31;;;;;;;7.17;5.27;;;1.10;99.90;;;;;;5031309;28;20185;-83
2022/12/09 00:18:57;;;;;;;7.93;5.33;;;1.10;99.90;;;;;;5032496;28;20201;-82
2022/12/09 00:21:31;;;;;;;6.43;4.80;;;1.20;99.90;;;;;;5032398;28;20194;-82
2022/12/09 00:23:58;;;;;;;6.93;5.30;;;1.20;99.90;;;;;;5031901;28;20186;-82
2022/12/09 00:26:26;;;;;;;6.83;4.90;;;1.20;99.90;;;;;;5031079;28;20176;-83
2022/12/09 00:28:52;;;;;;;6.70;4.83;;;1.20;99.90;;;;;;5031496;28;20673;-82
2022/12/09 00:31:22;;;;;;;7.23;5.43;;;1.20;99.90;;;;;;5034930;28;20216;-82
2022/12/09 00:33:48;;;;;;;7.13;5.60;;;1.20;99.90;;;;;;5036218;28;20179;-82
2022/12/09 00:36:17;;;;;;;7.90;5.60;;;1.20;99.90;;;;;;5034883;28;20175;-83
2022/12/09 00:38:42;;;;;;;7.77;5.23;;;1.20;99.90;;;;;;5036128;28;20653;-82
2022/12/09 00:41:08;;;;;;;7.13;5.37;;;1.20;99.90;;;;;;5035887;28;20193;-83
2022/12/09 00:43:34;;;;;;;8.70;5.30;;;1.20;99.90;;;;;;5034278;28;20357;-82
2022/12/09 00:46:00;;;;;;;7.47;5.60;;;1.30;99.90;;;;;;5035728;28;20645;-82
2022/12/09 00:48:26;;;;;;;6.63;5.07;;;1.30;99.90;;;;;;5036077;28;20223;-82
2022/12/09 00:50:51;;;;;;;6.50;5.43;;;1.30;99.90;;;;;;5035733;28;20191;-82
2022/12/09 00:53:17;;;;;;;8.53;4.90;;;1.30;99.90;;;;;;5035753;28;20178;-82
2022/12/09 00:55:44;;;;;;;7.40;5.60;;;1.30;99.90;;;;;;5026642;28;20223;-82
2022/12/09 00:58:10;;;;;;;7.87;5.67;;;1.40;99.90;;;;;;5056822;22;20214;-83
2022/12/09 01:00:35;;;;;;;7.87;5.47;;;1.30;99.90;;;;;;5054227;28;20170;-83
2022/12/09 01:03:01;;;;;;;6.40;5.07;;;1.30;99.90;;;;;;5055201;28;20698;-83
2022/12/09 01:05:26;;;;;;;8.80;5.83;;;1.20;99.90;;;;;;5037730;28;20266;-83
2022/12/09 01:07:52;;;;;;;9.03;5.97;;;1.20;99.90;;;;;;5041042;28;20236;-83
2022/12/09 01:10:18;;;;;;;7.90;5.50;;;1.20;99.90;;;;;;5057813;28;20174;-83
2022/12/09 01:12:43;;;;;;;7.43;5.43;;;1.10;99.90;;;;;;5075404;28;20235;-83
2022/12/09 01:15:09;;;;;;;6.67;5.30;;;1.10;99.90;;;;;;5075189;28;20615;-83
2022/12/09 01:17:36;;;;;;;8.50;6.10;;;1.10;99.90;;;;;;5075237;28;20549;-83
2022/12/09 01:20:07;;;;;;;7.90;5.87;;;1.10;99.90;;;;;;5057265;28;20177;-83
2022/12/09 01:22:33;;;;;;;8.73;6.10;;;1.10;99.90;;;;;;5075090;28;20177;-83
2022/12/09 01:24:58;;;;;;;8.00;6.00;;;1.10;99.90;;;;;;5057370;28;20228;-83
2022/12/09 01:27:24;;;;;;;8.83;6.47;;;1.10;99.90;;;;;;5057299;28;20169;-83
2022/12/09 01:29:49;;;;;;;8.47;6.00;;;1.20;99.90;;;;;;5057167;28;20258;-83
2022/12/09 01:32:15;;;;;;;8.00;5.80;;;1.20;99.90;;;;;;5074879;28;20196;-82
2022/12/09 01:34:41;;;;;;;8.33;5.80;;;1.10;99.90;;;;;;5056930;28;20189;-83
2022/12/09 01:37:06;;;;;;;7.47;5.87;;;1.10;99.90;;;;;;5056965;28;20185;-83
2022/12/09 01:39:32;;;;;;;9.27;6.63;;;1.10;99.90;;;;;;5057158;28;20649;-83
2022/12/09 01:42:02;;;;;;;8.33;5.90;;;1.00;99.90;;;;;;5055904;28;20182;-83
2022/12/09 01:44:29;;;;;;;8.50;6.23;;;1.00;99.90;;;;;;5056895;28;20208;-83
2022/12/09 01:46:57;;;;;;;10.17;6.30;;;1.00;99.90;;;;;;5056692;28;20169;-83
2022/12/09 01:49:35;;;;;;;9.13;5.90;;;1.00;99.90;;;;;;5056617;28;20193;-83
2022/12/09 01:52:09;;;;;;;9.27;6.10;;;0.90;99.90;;;;;;5056733;28;20203;-83
2022/12/09 01:54:36;;;;;;;8.40;5.60;;;0.90;99.90;;;;;;5056926;28;20179;-83
2022/12/09 01:57:03;;;;;;;9.17;6.20;;;0.90;99.90;;;;;;5056671;28;20208;-83
2022/12/09 01:59:29;;;;;;;8.37;5.63;;;0.90;99.90;;;;;;5056131;28;20231;-83
2022/12/09 02:01:58;;;;;;;6.43;4.43;;;0.90;99.90;;;;;;5074130;28;20181;-83
2022/12/09 02:04:25;;;;;;;6.73;4.97;;;0.90;99.90;;;;;;5055979;28;20551;-83
2022/12/09 02:06:51;;;;;;;8.23;6.10;;;0.90;99.90;;;;;;5056580;28;20173;-83
2022/12/09 02:09:17;;;;;;;8.73;6.43;;;0.90;99.90;;;;;;5074240;28;20201;-83
2022/12/09 02:12:01;;;;;;;8.70;6.07;;;0.90;99.90;;;;;;5056465;28;20273;-83
2022/12/09 02:14:38;;;;;;;7.80;5.70;;;0.90;99.90;;;;;;5056087;28;20181;-83
2022/12/09 02:17:38;;;;;;;6.30;4.00;;;0.90;99.90;;;;;;5056576;28;20161;-83
2022/12/09 02:20:24;;;;;;;7.87;4.67;;;0.90;99.90;;;;;;5055905;28;20541;-83
2022/12/09 02:23:10;;;;;;;7.47;5.27;;;0.90;99.90;;;;;;5055705;28;20200;-83
2022/12/09 02:25:46;;;;;;;6.83;4.77;;;0.90;99.90;;;;;;5074094;28;20170;-83
2022/12/09 02:28:32;;;;;;;6.53;4.43;;;0.80;99.90;;;;;;5055891;28;20184;-83
2022/12/09 02:31:20;;;;;;;7.93;5.13;;;0.90;99.90;;;;;;5055753;28;20170;-83
2022/12/09 02:34:11;;;;;;;8.43;5.63;;;0.80;99.90;;;;;;5055521;28;20180;-83
2022/12/09 02:37:03;;;;;;;7.27;5.47;;;0.80;99.90;;;;;;5055784;28;20251;-83
2022/12/09 02:39:51;;;;;;;7.37;5.47;;;0.90;99.90;;;;;;5055540;28;20280;-83
2022/12/09 02:42:19;;;;;;;9.83;5.77;;;0.90;99.90;;;;;;5055334;28;20169;-82
2022/12/09 02:44:48;;;;;;;8.73;5.57;;;1.00;99.90;;;;;;5055561;28;20201;-83
2022/12/09 02:47:18;;;;;;;8.73;6.13;;;0.90;99.90;;;;;;5073490;28;20255;-83
2022/12/09 02:49:47;;;;;;;8.27;6.20;;;0.90;99.90;;;;;;5073232;28;20204;-83
2022/12/09 02:52:13;;;;;;;7.63;5.93;;;1.00;99.90;;;;;;5072336;28;20172;-80
2022/12/09 02:54:40;;;;;;;7.47;5.77;;;1.00;99.90;;;;;;5072926;28;20770;-83
2022/12/09 02:57:21;;;;;;;7.27;5.27;;;0.90;99.90;;;;;;5055497;28;20173;-83
2022/12/09 02:59:48;;;;;;;7.17;5.47;;;0.90;99.90;;;;;;5055546;28;20324;-83
2022/12/09 03:02:31;;;;;;;9.63;5.57;;;0.90;99.90;;;;;;5055241;28;20200;-82
2022/12/09 03:05:40;;;;;;;8.53;6.23;;;0.90;99.90;;;;;;5055141;28;20235;-83
2022/12/09 03:08:26;;;;;;;9.07;6.63;;;1.00;99.90;;;;;;5050031;28;20201;-83
2022/12/09 03:11:15;;;;;;;7.37;5.60;;;1.00;99.90;;;;;;5072956;28;20172;-83
2022/12/09 03:13:58;;;;;;;10.83;5.73;;;1.00;99.90;;;;;;5055101;28;20177;-83
2022/12/09 03:16:39;;;;;;;7.70;5.70;;;1.00;99.90;;;;;;5055270;28;20183;-83
2022/12/09 03:19:15;;;;;;;8.27;5.60;;;1.00;99.90;;;;;;5072749;28;20203;-83
2022/12/09 03:21:45;;;;;;;8.33;5.67;;;1.00;99.90;;;;;;5055095;28;20175;-83
2022/12/09 03:24:14;;;;;;;8.27;5.47;;;1.00;99.90;;;;;;5054870;28;20204;-83
2022/12/09 03:26:42;;;;;;;7.30;5.60;;;1.00;99.90;;;;;;5054641;28;20184;-83
2022/12/09 03:29:16;;;;;;;8.57;5.50;;;1.00;99.90;;;;;;5054886;28;20246;-83
2022/12/09 03:31:43;;;;;;;6.20;4.87;;;1.10;99.90;;;;;;5072514;28;20213;-83
2022/12/09 03:34:12;;;;;;;8.13;5.30;;;1.10;99.90;;;;;;5054785;28;20173;-83
2022/12/09 03:36:40;;;;;;;7.83;5.50;;;1.10;99.90;;;;;;5054473;28;20605;-83
2022/12/09 03:39:11;;;;;;;7.13;5.13;;;1.00;99.90;;;;;;5054395;28;20193;-83
2022/12/09 03:41:40;;;;;;;8.20;5.77;;;1.00;99.90;;;;;;5054994;28;20181;-83
2022/12/09 03:44:25;;;;;;;8.27;5.83;;;1.10;99.90;;;;;;5054262;28;20732;-83
2022/12/09 03:46:50;;;;;;;7.87;5.77;;;1.00;99.90;;;;;;5054486;28;20561;-83
2022/12/09 03:49:17;;;;;;;7.27;4.97;;;1.00;99.90;;;;;;5054521;28;20189;-83
2022/12/09 03:52:03;;;;;;;7.10;4.70;;;1.00;99.90;;;;;;5072509;28;20170;-83
2022/12/09 03:54:36;;;;;;;7.07;5.23;;;1.00;99.90;;;;;;5072155;28;20209;-83
2022/12/09 03:57:03;;;;;;;7.63;5.40;;;1.10;99.90;;;;;;5054896;28;20238;-83
2022/12/09 03:59:34;;;;;;;7.33;5.20;;;1.00;99.90;;;;;;5072447;28;20255;-83
2022/12/09 04:02:02;;;;;;;8.20;5.93;;;1.00;99.90;;;;;;5072001;28;20717;-83
2022/12/09 04:04:28;;;;;;;8.20;5.83;;;1.00;99.90;;;;;;5073833;28;20207;-83
2022/12/09 04:06:53;;;;;;;8.23;6.50;;;1.00;99.90;;;;;;5058319;28;20169;-83
2022/12/09 04:09:19;;;;;;;10.17;6.53;;;1.00;99.90;;;;;;5058340;28;20208;-82
2022/12/09 04:11:45;;;;;;;8.63;6.13;;;1.00;99.90;;;;;;5058624;28;20267;-83
2022/12/09 04:14:10;;;;;;;9.07;5.87;;;1.00;99.90;;;;;;5076354;28;20656;-83
2022/12/09 04:16:36;;;;;;;9.70;6.67;;;0.90;99.90;;;;;;5076263;28;20193;-83
2022/12/09 04:19:01;;;;;;;9.43;6.33;;;0.90;99.90;;;;;;5058335;28;20221;-83
2022/12/09 04:21:27;;;;;;;10.00;6.83;;;0.90;99.90;;;;;;5058287;28;20553;-83
2022/12/09 04:23:52;;;;;;;9.47;7.03;;;0.80;99.90;;;;;;5075864;28;20197;-83
2022/12/09 04:26:20;;;;;;;9.17;6.73;;;0.80;99.90;;;;;;5058627;28;20178;-82
2022/12/09 04:28:47;;;;;;;9.77;6.90;;;0.80;99.90;;;;;;5058299;28;20200;-83
2022/12/09 04:31:14;;;;;;;9.90;6.80;;;0.80;99.90;;;;;;5076215;28;20232;-83
2022/12/09 04:33:41;;;;;;;9.73;6.80;;;0.80;99.90;;;;;;5075633;28;20260;-83
2022/12/09 04:36:09;;;;;;;10.10;6.80;;;0.90;99.90;;;;;;5054486;28;20170;-83
2022/12/09 04:38:35;;;;;;;10.87;7.00;;;0.90;99.90;;;;;;5054311;28;20671;-83
2022/12/09 04:41:02;;;;;;;10.53;7.07;;;0.90;99.90;;;;;;5054722;28;20189;-83
2022/12/09 04:43:28;;;;;;;9.37;7.03;;;0.90;99.90;;;;;;5057157;28;20775;-83
2022/12/09 04:45:58;;;;;;;9.43;6.87;;;0.90;99.90;;;;;;5049257;28;20213;-83
2022/12/09 04:48:24;;;;;;;9.50;6.50;;;1.00;99.90;;;;;;5057723;28;20200;-83
2022/12/09 04:50:49;;;;;;;10.60;6.53;;;1.00;99.90;;;;;;5075552;28;20169;-83
2022/12/09 04:53:15;;;;;;;8.40;5.57;;;0.90;99.90;;;;;;5066986;28;20180;-83
2022/12/09 04:55:41;;;;;;;7.53;5.97;;;0.90;99.90;;;;;;5059745;28;20173;-83
2022/12/09 04:58:06;;;;;;;10.17;6.37;;;0.90;99.90;;;;;;5037332;28;20601;-83
2022/12/09 05:00:32;;;;;;;9.63;6.53;;;0.90;99.90;;;;;;5055616;28;20636;-83
2022/12/09 05:02:57;;;;;;;10.70;7.07;;;0.90;99.90;;;;;;5055320;28;20176;-83
2022/12/09 05:05:23;;;;;;;10.87;6.97;;;0.80;99.90;;;;;;5037495;28;20292;-82
2022/12/09 05:07:48;;;;;;;9.40;6.70;;;0.80;99.90;;;;;;5037445;28;20190;-83
2022/12/09 05:10:14;;;;;;;12.70;7.80;;;0.90;99.90;;;;;;5058433;28;20685;-83
2022/12/09 05:12:39;;;;;;;13.20;7.73;;;0.90;99.90;;;;;;5048836;28;20256;-83
2022/12/09 05:15:05;;;;;;;10.93;7.70;;;0.80;99.90;;;;;;5037780;28;20599;-83
2022/12/09 05:17:31;;;;;;;13.20;7.73;;;0.90;99.90;;;;;;5054362;28;20178;-83
2022/12/09 05:19:57;;;;;;;13.67;8.40;;;0.80;99.90;;;;;;5037334;28;20266;-83
2022/12/09 05:22:22;;;;;;;15.90;8.50;;;0.80;99.90;;;;;;5037072;28;20220;-83
2022/12/09 05:24:48;;;;;;;13.17;8.83;;;0.80;99.90;;;;;;5036842;28;20201;-83
2022/12/09 05:27:13;;;;;;;13.07;8.30;;;0.80;99.90;;;;;;5037064;28;20182;-83
2022/12/09 05:29:39;;;;;;;12.17;7.63;;;0.70;99.90;;;;;;5062188;28;20196;-83
2022/12/09 05:32:05;;;;;;;12.67;7.37;;;0.80;99.90;;;;;;5066406;28;20700;-83
2022/12/09 05:34:31;;;;;;;13.17;8.07;;;0.80;99.90;;;;;;5074791;28;20184;-82
2022/12/09 05:36:56;;;;;;;10.97;7.83;;;0.80;99.90;;;;;;5056806;28;20174;-83
2022/12/09 05:39:22;;;;;;;12.77;7.80;;;0.70;99.90;;;;;;5056596;28;20193;-83
2022/12/09 05:41:48;;;;;;;13.13;8.33;;;0.70;99.90;;;;;;5074621;28;20210;-83
2022/12/09 05:44:13;;;;;;;14.70;8.47;;;0.70;99.90;;;;;;5056308;28;20201;-83
2022/12/09 05:46:39;;;;;;;13.53;8.53;;;0.60;99.90;;;;;;5056772;28;20240;-83
2022/12/09 05:49:05;;;;;;;13.10;8.17;;;0.50;99.90;;;;;;5056718;28;20234;-83
2022/12/09 05:51:31;;;;;;;12.63;8.30;;;0.50;99.90;;;;;;5056451;28;20363;-83
2022/12/09 05:54:02;;;;;;;14.70;8.80;;;0.50;99.90;;;;;;5056307;28;20177;-83
2022/12/09 05:56:27;;;;;;;13.67;8.10;;;0.50;99.90;;;;;;5056660;28;20176;-83
2022/12/09 05:58:53;;;;;;;15.30;8.30;;;0.50;99.90;;;;;;5074433;28;20299;-84
2022/12/09 06:01:20;;;;;;;15.27;8.53;;;0.40;99.90;;;;;;5074099;28;20173;-81
2022/12/09 06:03:47;;;;;;;8.30;4.70;;;0.40;99.90;;;;;;5056020;28;20200;-79
2022/12/09 06:06:15;;;;;;;13.43;7.53;;;0.60;99.90;;;;;;5056272;28;20177;-83
2022/12/09 06:08:42;;;;;;;15.13;9.10;;;1.70;99.90;;;;;;5056161;28;20254;-79
2022/12/09 06:11:11;;;;;;;12.60;8.30;;;2.50;99.90;;;;;;5056773;28;20524;-78
2022/12/09 06:13:37;;;;;;;11.87;7.53;;;3.00;99.90;;;;;;5056432;28;20184;-78
2022/12/09 06:16:04;;;;;;;11.37;6.90;;;3.30;99.90;;;;;;5056775;28;20175;-81
2022/12/09 06:18:30;;;;;;;10.47;7.90;;;3.60;99.90;;;;;;5073852;28;20199;-81
2022/12/09 06:20:56;;;;;;;11.77;7.27;;;3.20;99.90;;;;;;5055845;28;20187;-81
2022/12/09 06:23:21;;;;;;;11.83;7.67;;;2.60;99.90;;;;;;5073474;28;20679;-78
2022/12/09 06:25:47;;;;;;;11.77;7.90;;;2.10;99.90;;;;;;5055871;28;20187;-79
2022/12/09 06:28:12;;;;;;;12.83;8.10;;;1.70;99.90;;;;;;5055460;28;20195;-79
2022/12/09 06:30:38;;;;;;;10.67;7.87;;;1.40;99.90;;;;;;5055842;28;20567;-81
2022/12/09 06:33:04;;;;;;;10.73;6.80;;;1.10;99.90;;;;;;5055804;28;20182;-81
2022/12/09 06:35:29;;;;;;;11.57;7.23;;;1.00;99.90;;;;;;5056358;28;20240;-81
2022/12/09 06:37:55;;;;;;;11.50;7.30;;;0.90;99.90;;;;;;5073569;28;20198;-81
2022/12/09 06:40:21;;;;;;;10.87;7.07;;;0.70;99.90;;;;;;5073734;28;20202;-81
2022/12/09 06:42:49;;;;;;;10.30;6.67;;;0.50;99.90;;;;;;5073367;28;20175;-82
2022/12/09 06:45:16;;;;;;;10.93;7.00;;;0.40;99.90;;;;;;5055239;28;20207;-81
2022/12/09 06:47:41;;;;;;;8.10;6.10;;;0.30;99.90;;;;;;5073312;28;20651;-81
2022/12/09 06:50:08;;;;;;;12.87;6.10;;;0.20;99.90;;;;;;5055358;28;20260;-82
2022/12/09 06:52:34;;;;;;;22.00;6.83;;;0.10;99.90;;;;;;5054873;28;20681;-81
2022/12/09 06:55:00;;;;;;;12.60;7.50;;;0.00;99.90;;;;;;5047081;28;20245;-81
2022/12/09 06:57:26;;;;;;;12.37;7.70;;;0.00;99.90;;;;;;5059548;28;20656;-81
2022/12/09 06:59:51;;;;;;;11.70;7.50;;;0.00;99.90;;;;;;5043075;22;20724;-86
2022/12/09 07:02:17;;;;;;;14.33;8.47;;;0.10;99.90;;;;;;5014822;28;20170;-85
2022/12/09 07:04:42;;;;;;;12.43;7.50;;;0.00;99.90;;;;;;5015220;28;20253;-85
2022/12/09 07:07:10;;;;;;;27.33;8.40;;;0.00;99.90;;;;;;5015000;28;20201;-85
2022/12/09 07:09:36;;;;;;;32.50;8.23;;;-0.10;99.90;;;;;;5029242;28;20189;-85
2022/12/09 07:12:01;;;;;;;26.07;9.77;;;-0.20;99.90;;;;;;5052824;28;20181;-85
2022/12/09 07:14:27;;;;;;;34.47;9.63;;;-0.20;99.90;;;;;;5052425;28;20234;-85
2022/12/09 07:16:53;;;;;;;35.10;9.37;;;-0.20;99.90;;;;;;5052468;28;20200;-84
2022/12/09 07:19:21;;;;;;;24.70;8.77;;;-0.30;99.90;;;;;;5034814;28;20212;-84
2022/12/09 07:21:48;;;;;;;26.53;8.67;;;-0.30;99.90;;;;;;5034952;28;20185;-84
2022/12/09 07:24:14;;;;;;;15.67;9.60;;;-0.20;99.90;;;;;;5034510;28;20281;-83
2022/12/09 07:26:40;;;;;;;18.90;9.17;;;-0.20;99.90;;;;;;5052562;28;20209;-83
2022/12/09 07:29:06;;;;;;;25.13;8.53;;;-0.20;99.90;;;;;;5052496;28;20205;-83
2022/12/09 07:31:32;;;;;;;19.17;8.77;;;-0.20;99.90;;;;;;5034496;28;20181;-84
2022/12/09 07:33:58;;;;;;;24.30;8.07;;;-0.20;99.90;;;;;;5034564;28;20173;-82
2022/12/09 07:36:28;;;;;;;22.30;8.60;;;-0.30;99.90;;;;;;5034661;28;20169;-84
2022/12/09 07:38:55;;;;;;;17.07;8.63;;;-0.30;99.90;;;;;;5034008;28;20292;-80
2022/12/09 07:41:20;;;;;;;33.90;8.93;;;-0.30;99.90;;;;;;5034497;28;20276;-81
2022/12/09 07:43:46;;;;;;;42.70;9.30;;;-0.30;99.90;;;;;;5051965;28;20295;-81
2022/12/09 07:46:14;;;;;;;20.90;9.00;;;-0.50;99.90;;;;;;5034722;28;20179;-81
2022/12/09 07:48:40;;;;;;;37.90;10.13;;;-0.50;99.90;;;;;;5052241;28;20246;-81
2022/12/09 07:51:05;;;;;;;39.97;11.20;;;-0.50;99.90;;;;;;5040902;28;20173;-81
2022/12/09 07:53:34;;;;;;;48.27;11.00;;;-0.50;99.90;;;;;;5014311;28;20276;-82
2022/12/09 07:56:01;;;;;;;36.57;9.63;;;-0.60;99.90;;;;;;5032145;28;20175;-81
2022/12/09 07:58:27;;;;;;;43.10;10.63;;;-0.60;99.90;;;;;;5032089;28;20245;-83
2022/12/09 08:00:53;;;;;;;24.83;9.50;;;-0.60;99.90;;;;;;5032448;28;20198;-83
2022/12/09 08:03:18;;;;;;;20.53;8.77;;;-0.50;99.90;;;;;;5014262;28;20177;-81
2022/12/09 08:05:51;;;;;;;24.70;10.80;;;-0.50;99.90;;;;;;5032341;28;20173;-81
2022/12/09 08:08:17;;;;;;;24.67;9.80;;;-0.40;99.90;;;;;;5032170;28;20190;-83
2022/12/09 08:10:43;;;;;;;15.47;8.67;;;-0.40;99.90;;;;;;5032232;28;20173;-81
2022/12/09 08:13:09;;;;;;;16.90;9.77;;;-0.20;99.90;;;;;;5014347;28;20173;-81
2022/12/09 08:15:35;;;;;;;19.67;11.13;;;-0.20;99.90;;;;;;5032099;28;20228;-81
2022/12/09 08:18:01;;;;;;;13.77;8.43;;;-0.20;99.90;;;;;;5035402;28;20561;-81
2022/12/09 08:20:27;;;;;;;39.33;19.17;;;-0.20;99.90;;;;;;5051657;28;20185;-82
2022/12/09 08:22:52;;;;;;;27.47;11.10;;;-0.30;99.90;;;;;;5051166;28;20185;-81
2022/12/09 08:25:18;;;;;;;14.87;8.90;;;-0.30;99.90;;;;;;5015028;28;20210;-81
2022/12/09 08:27:43;;;;;;;15.53;9.47;;;-0.50;99.90;;;;;;5014825;28;20181;-81
2022/12/09 08:30:09;;;;;;;16.37;8.83;;;-0.50;99.90;;;;;;5014585;28;20292;-83
2022/12/09 08:32:35;;;;;;;18.83;11.00;;;-0.40;99.90;;;;;;5015051;28;20189;-79
2022/12/09 08:35:00;;;;;;;22.27;11.53;;;-0.20;99.90;;;;;;5015432;28;20204;-82
2022/12/09 08:37:26;;;;;;;78.10;30.80;;;-0.10;99.90;;;;;;5031962;28;20712;-83
2022/12/09 08:39:51;;;;;;;29.53;15.00;;;0.00;99.90;;;;;;5032268;28;20206;-81
2022/12/09 08:42:17;;;;;;;21.70;12.37;;;0.10;99.90;;;;;;5014842;28;20190;-80
2022/12/09 08:44:43;;;;;;;19.17;11.33;;;0.10;99.90;;;;;;5014866;28;20202;-82
2022/12/09 08:47:08;;;;;;;28.23;15.77;;;0.10;99.90;;;;;;5032621;28;20174;-80
2022/12/09 08:49:34;;;;;;;27.63;15.07;;;0.10;99.90;;;;;;5014602;28;20679;-79
2022/12/09 08:52:00;;;;;;;24.70;13.40;;;0.10;99.90;;;;;;5018178;28;20173;-80
2022/12/09 08:54:26;;;;;;;32.10;18.20;;;0.10;99.90;;;;;;5018253;28;20319;-81
2022/12/09 08:56:56;;;;;;;38.70;20.17;;;0.10;99.90;;;;;;5035590;28;20552;-80
2022/12/09 08:59:22;;;;;;;44.33;23.20;;;0.20;99.90;;;;;;5018016;28;20295;-82
2022/12/09 09:01:48;;;;;;;45.43;26.30;;;0.20;99.90;;;;;;5018139;28;20224;-81
2022/12/09 09:04:16;;;;;;;31.37;19.10;;;0.20;99.90;;;;;;5017431;28;20225;-82
2022/12/09 09:06:43;;;;;;;24.53;15.40;;;0.20;99.90;;;;;;5035603;28;20631;-83
2022/12/09 09:09:11;;;;;;;20.77;12.77;;;0.20;99.90;;;;;;5035565;28;20220;-80
2022/12/09 09:11:37;;;;;;;33.33;20.37;;;0.20;99.90;;;;;;5036240;28;20201;-81
2022/12/09 09:14:05;;;;;;;27.37;16.20;;;0.30;99.90;;;;;;5035142;28;20174;-80
2022/12/09 09:16:31;;;;;;;21.40;12.73;;;0.50;99.90;;;;;;5035622;28;20187;-80
2022/12/09 09:18:57;;;;;;;14.97;9.63;;;0.50;99.90;;;;;;5026177;28;20300;-80
2022/12/09 09:21:25;;;;;;;13.73;9.47;;;0.50;99.90;;;;;;5051124;28;20177;-80
2022/12/09 09:23:51;;;;;;;11.80;8.87;;;0.60;99.90;;;;;;5032147;28;20292;-80
2022/12/09 09:26:22;;;;;;;11.57;7.53;;;0.80;99.90;;;;;;5029746;28;20173;-81
2022/12/09 09:28:48;;;;;;;11.47;8.13;;;1.10;99.90;;;;;;5054997;28;20194;-80
2022/12/09 09:31:17;;;;;;;15.93;11.03;;;1.30;99.90;;;;;;5054549;28;20166;-84
2022/12/09 09:33:43;;;;;;;14.37;10.73;;;1.50;99.90;;;;;;5054452;28;20181;-84
2022/12/09 09:36:13;;;;;;;13.90;10.30;;;1.70;99.90;;;;;;5036615;28;20189;-83
2022/12/09 09:38:39;;;;;;;14.03;10.80;;;2.00;99.90;;;;;;5054150;28;20227;-85
2022/12/09 09:41:42;;;;;;;16.20;10.07;;;2.20;99.90;;;;;;5036694;28;20259;-83
2022/12/09 09:44:31;;;;;;;10.67;8.40;;;2.30;99.90;;;;;;5054138;28;20273;-84
2022/12/09 09:46:58;;;;;;;11.50;7.90;;;2.40;99.90;;;;;;5036081;28;20600;-84
2022/12/09 09:49:44;;;;;;;11.87;8.37;;;2.70;99.90;;;;;;5036248;28;20236;-85
2022/12/09 09:52:17;;;;;;;12.53;7.90;;;2.80;99.90;;;;;;5036292;28;20205;-84
2022/12/09 09:54:43;;;;;;;11.97;8.03;;;3.10;99.90;;;;;;5054125;28;20241;-83
2022/12/09 09:57:48;;;;;;;11.07;8.10;;;3.30;99.90;;;;;;5036523;28;20183;-81
2022/12/09 10:00:32;;;;;;;10.93;7.40;;;3.40;99.90;;;;;;5036439;28;20220;-81
2022/12/09 10:03:10;;;;;;;10.80;8.47;;;3.50;99.90;;;;;;5046001;28;20190;-83
2022/12/09 10:05:48;;;;;;;11.50;7.87;;;3.70;99.90;;;;;;5037415;28;20204;-86
2022/12/09 10:08:29;;;;;;;9.60;6.77;;;4.00;99.90;;;;;;5037110;28;20195;-78
2022/12/09 10:11:06;;;;;;;10.93;7.03;;;4.20;99.90;;;;;;5038365;28;20179;-82
2022/12/09 10:13:42;;;;;;;8.20;6.50;;;4.30;99.90;;;;;;5016131;28;20197;-81
2022/12/09 10:16:25;;;;;;;9.57;7.07;;;4.40;99.90;;;;;;5034013;28;20176;-81
2022/12/09 10:19:22;;;;;;;9.70;6.93;;;4.50;99.90;;;;;;5033938;28;20193;-82
2022/12/09 10:21:50;;;;;;;10.40;6.60;;;4.60;99.90;;;;;;5034039;28;20261;-81
2022/12/09 10:24:24;;;;;;;10.07;6.50;;;4.60;99.90;;;;;;5016294;28;20202;-81
2022/12/09 10:27:25;;;;;;;9.23;7.00;;;4.40;99.90;;;;;;5026217;28;20244;-78
2022/12/09 10:29:58;;;;;;;8.53;6.20;;;4.20;99.90;;;;;;4999982;28;20202;-80
2022/12/09 10:32:30;;;;;;;8.07;6.10;;;4.10;99.90;;;;;;5040102;28;20170;-80
2022/12/09 10:34:57;;;;;;;9.97;6.97;;;3.90;99.90;;;;;;5033844;28;20174;-82
2022/12/09 10:37:24;;;;;;;10.33;7.03;;;4.00;99.90;;;;;;5016167;28;20182;-79
2022/12/09 10:39:59;;;;;;;10.87;7.30;;;3.80;99.90;;;;;;5034412;28;20225;-80
2022/12/09 10:45:10;;;;;;;10.10;7.20;;;3.50;99.90;;;;;;5045463;28;20244;-82
2022/12/09 10:47:36;;;;;;;10.53;7.33;;;3.30;99.90;;;;;;5026852;28;20714;-82
2022/12/09 10:50:03;;;;;;;12.73;7.70;;;3.40;99.90;;;;;;5052795;28;20281;-84
2022/12/09 10:52:39;;;;;;;10.20;7.33;;;3.60;99.90;;;;;;5044345;28;20177;-81
2022/12/09 10:55:05;;;;;;;10.27;7.20;;;3.50;99.90;;;;;;5053286;28;20181;-81
2022/12/09 10:57:31;;;;;;;11.27;7.17;;;3.50;99.90;;;;;;5053085;28;20230;-83
2022/12/09 11:00:01;;;;;;;10.30;7.57;;;3.60;99.90;;;;;;5052743;28;20205;-82
2022/12/09 11:02:28;;;;;;;9.83;7.90;;;3.70;99.90;;;;;;5052932;28;20548;-83
2022/12/09 11:04:54;;;;;;;10.77;7.10;;;3.70;99.90;;;;;;5035382;28;20197;-83
2022/12/09 11:07:22;;;;;;;10.17;7.70;;;3.90;99.90;;;;;;5053288;28;20251;-81
2022/12/09 11:09:57;;;;;;;10.63;7.57;;;4.00;99.90;;;;;;5053564;28;20197;-81
2022/12/09 11:12:26;;;;;;;9.80;7.57;;;4.00;99.90;;;;;;5046600;28;20200;-82
2022/12/09 11:15:20;;;;;;;10.80;7.90;;;4.20;99.90;;;;;;5040580;28;20174;-83
2022/12/09 11:18:15;;;;;;;12.03;7.93;;;4.10;99.90;;;;;;5033186;28;20196;-82
2022/12/09 11:20:52;;;;;;;9.63;7.10;;;4.40;99.90;;;;;;5017027;28;20170;-82
2022/12/09 11:23:19;;;;;;;11.27;7.90;;;4.40;99.90;;;;;;5033310;28;20284;-77
2022/12/09 11:25:56;;;;;;;9.90;7.40;;;4.40;99.90;;;;;;5019331;28;20261;-78
2022/12/09 11:28:34;;;;;;;11.50;7.87;;;4.50;99.90;;;;;;5023886;28;20293;-82
2022/12/09 11:31:19;;;;;;;11.17;7.67;;;4.40;99.90;;;;;;5015920;28;20220;-81
2022/12/09 11:34:26;;;;;;;10.23;7.40;;;4.20;99.90;;;;;;5015467;28;20194;-81
2022/12/09 11:36:54;;;;;;;12.20;7.77;;;4.10;99.90;;;;;;5041822;28;20168;-84
2022/12/09 11:39:30;;;;;;;11.03;7.77;;;4.00;99.90;;;;;;5027143;28;20228;-85
2022/12/09 11:42:19;;;;;;;12.73;8.90;;;4.00;99.90;;;;;;5042631;28;20185;-85
2022/12/09 11:45:03;;;;;;;12.63;8.80;;;3.80;99.90;;;;;;5032396;28;20202;-84
2022/12/09 11:47:33;;;;;;;10.97;8.03;;;3.70;99.90;;;;;;5022685;28;20184;-84
2022/12/09 11:50:20;;;;;;;12.20;8.77;;;3.70;99.90;;;;;;5045916;28;20197;-84
2022/12/09 11:53:03;;;;;;;12.67;8.03;;;3.60;99.90;;;;;;5036402;28;20173;-84
2022/12/09 11:55:30;;;;;;;13.27;8.63;;;3.50;99.90;;;;;;5054815;28;20179;-84
2022/12/09 11:58:02;;;;;;;10.50;7.87;;;3.60;99.90;;;;;;5036203;28;20184;-82
2022/12/09 12:00:51;;;;;;;11.30;7.80;;;3.80;99.90;;;;;;5036596;28;20211;-82
2022/12/09 12:03:28;;;;;;;22.17;18.30;;;4.10;99.90;;;;;;5033788;28;20177;-87
2022/12/09 12:05:54;;;;;;;12.07;9.67;;;8.90;99.90;;;;;;5025952;28;20183;-85
2022/12/09 12:08:24;;;;;;;10.57;6.87;;;10.60;99.90;;;;;;5034403;28;20569;-85
2022/12/09 12:11:06;;;;;;;9.80;7.17;;;9.50;99.90;;;;;;5035202;28;20173;-85
2022/12/09 12:13:45;;;;;;;10.73;7.37;;;7.30;99.90;;;;;;5034782;28;20178;-85
2022/12/09 12:16:33;;;;;;;11.53;8.60;;;5.70;99.90;;;;;;5035004;28;20231;-84
2022/12/09 12:19:13;;;;;;;11.43;8.47;;;4.70;99.90;;;;;;5034874;28;20220;-85
2022/12/09 12:21:45;;;;;;;11.13;7.80;;;4.00;99.90;;;;;;5034636;28;20173;-85
2022/12/09 12:24:19;;;;;;;12.00;8.20;;;3.90;99.90;;;;;;5034485;28;20202;-85
2022/12/09 12:27:23;;;;;;;11.50;8.13;;;4.10;99.90;;;;;;5038493;28;20241;-84
2022/12/09 12:29:59;;;;;;;13.50;8.53;;;4.20;99.90;;;;;;5008048;28;20208;-85
2022/12/09 12:32:37;;;;;;;12.33;8.43;;;4.50;99.90;;;;;;5056302;28;20181;-85
2022/12/09 12:35:41;;;;;;;12.63;8.70;;;4.80;99.90;;;;;;5056667;28;20178;-85
2022/12/09 12:38:09;;;;;;;11.83;8.10;;;5.60;99.90;;;;;;5038100;28;20176;-85
2022/12/09 12:41:05;;;;;;;12.17;8.17;;;5.90;99.90;;;;;;5056749;28;20227;-85
2022/12/09 12:47:02;;;;;;;11.03;7.87;;;6.10;99.90;;;;;;5056686;28;20204;-87
2022/12/09 12:49:49;;;;;;;15.53;11.10;;;6.10;99.90;;;;;;5055058;28;20196;-85
2022/12/09 12:52:20;;;;;;;11.80;8.57;;;6.20;99.90;;;;;;5037790;28;20184;-83
2022/12/09 12:54:49;;;;;;;11.03;8.10;;;6.20;99.90;;;;;;5037734;28;20186;-85
2022/12/09 12:57:14;;;;;;;10.47;8.10;;;6.60;99.90;;;;;;5055578;28;20182;-84
2022/12/09 12:59:54;;;;;;;11.87;8.43;;;7.00;99.90;;;;;;5057839;22;20234;-82
2022/12/09 13:02:29;;;;;;;43.27;32.03;;;7.10;99.90;;;;;;4995953;28;20623;-81
2022/12/09 13:05:02;;;;;;;13.87;10.53;;;6.70;99.90;;;;;;5000533;28;20208;-82
2022/12/09 13:08:01;;;;;;;12.87;9.73;;;6.30;99.90;;;;;;5004189;28;20183;-82
2022/12/09 13:10:37;;;;;;;9.93;7.33;;;6.50;99.90;;;;;;4998157;28;20220;-82
2022/12/09 13:13:05;;;;;;;12.60;8.30;;;6.70;99.90;;;;;;4998041;28;20188;-82